Marion, IN

2:05 PM EDT on March 23, 2017 (GMT -0400)
Shady Hills Estates | | Change Station

Elev 853 ft 40.58 °N, 85.67 °W | Updated 19 seconds ago

Overcast
Overcast
41.5 °F
Feels Like 38 °F
N
6.0
Wind Variable Wind from East
Gusts 9.8 mph

Today
High -- | Low -- °F
--% Chance of Precip.
Yesterday
High -- | Low -- °F
Precip. -- in
Pressure 30.39 in
Visibility 5.0 miles
Clouds Overcast 11000 ft
Windchill 38 °F
Dew Point 6 °F
Humidity 22%
Rainfall 0.00 in
Snow Depth Not available.
7:40 AM 7:58 PM
Waning Crescent, 21% visible
METAR KMZZ 231755Z AUTO 15010G15KT 5SM HZ OVC110 05/M05 A3039 RMK AO2 T00471053 10047 21033
Pressure 30.39 in
Visibility 5.0 miles
Clouds Overcast 11000 ft
Windchill 38 °F
Dew Point 6 °F
Humidity 22%
Rainfall 0.00 in
Snow Depth Not available.
7:40 AM 7:58 PM
Waning Crescent, 21% visible
METAR KMZZ 231755Z AUTO 15010G15KT 5SM HZ OVC110 05/M05 A3039 RMK AO2 T00471053 10047 21033

Get Severe Weather Alerts

Thanks for signing up!

Be on the lookout for a verification email in your inbox.

You'll start receiving the daily forecast at 8 AM.

×

10-Day Weather Forecast

Almanac

Astronomy

Mar. 23, 2017 Rise Set
Actual Time
Civil Twilight
Nautical Twilight
Astronomical Twilight
Moon
Length of Visible Light
Length of Day
Tomorrow will be .
, % of the Moon is Illuminated

Today's Extremes

State Highs State Lows

Community

WunderPhotos

Upload Photos

1,962,540 photos uploaded!

WunderBlog® & News

Nearby

Air Quality

  Air Quality AQ Index Pollutant
Not available.

Snow Depth

Station Depth Elevation

Earthquake Activity

City Distance Mag. Time & Date
Minimum magnitude displayed is 2.5.

Earthquake Activity

City Distance Mag. Time & Date
Minimum magnitude displayed is 2.5.

Coastal Water Temperatures

Place Temperature

Stations

Nearby Weather Stations

Station Location Temp. Windchill Dew Point Humidity Wind Precip. Elev Updated Type
                   

Watches & Warnings

There are currently no watches in effect.